sensor_id;sensor_type;location;lat;lon;timestamp;temperature;humidity
21582;DHT22;10952;50.836;4.348;2022-12-18T00:00:53;1.10;99.90
21582;DHT22;10952;50.836;4.348;2022-12-18T00:03:22;1.00;99.90
21582;DHT22;10952;50.836;4.348;2022-12-18T00:05:51;1.20;99.90
21582;DHT22;10952;50.836;4.348;2022-12-18T00:08:36;1.20;99.90
21582;DHT22;10952;50.836;4.348;2022-12-18T00:11:08;1.20;99.90
21582;DHT22;10952;50.836;4.348;2022-12-18T00:13:43;1.00;99.90
21582;DHT22;10952;50.836;4.348;2022-12-18T00:16:14;0.80;99.90
21582;DHT22;10952;50.836;4.348;2022-12-18T00:18:41;0.80;99.90
21582;DHT22;10952;50.836;4.348;2022-12-18T00:21:28;0.90;99.90
21582;DHT22;10952;50.836;4.348;2022-12-18T00:24:05;0.80;99.90
21582;DHT22;10952;50.836;4.348;2022-12-18T00:26:33;0.80;99.90
21582;DHT22;10952;50.836;4.348;2022-12-18T00:29:01;0.70;99.90
21582;DHT22;10952;50.836;4.348;2022-12-18T00:31:27;0.70;99.90
21582;DHT22;10952;50.836;4.348;2022-12-18T00:33:59;0.70;99.90
21582;DHT22;10952;50.836;4.348;2022-12-18T00:36:31;0.80;99.90
21582;DHT22;10952;50.836;4.348;2022-12-18T00:39:05;0.80;99.90
21582;DHT22;10952;50.836;4.348;2022-12-18T00:41:31;0.80;99.90
21582;DHT22;10952;50.836;4.348;2022-12-18T00:44:25;0.80;99.90
21582;DHT22;10952;50.836;4.348;2022-12-18T00:46:52;0.80;99.90
21582;DHT22;10952;50.836;4.348;2022-12-18T00:49:30;0.80;99.90
21582;DHT22;10952;50.836;4.348;2022-12-18T00:51:56;0.50;99.90
21582;DHT22;10952;50.836;4.348;2022-12-18T00:54:22;0.60;99.90
21582;DHT22;10952;50.836;4.348;2022-12-18T00:57:09;0.70;99.90
21582;DHT22;10952;50.836;4.348;2022-12-18T00:59:40;0.70;99.90
21582;DHT22;10952;50.836;4.348;2022-12-18T01:02:08;0.90;99.90
21582;DHT22;10952;50.836;4.348;2022-12-18T01:04:46;0.80;99.90
21582;DHT22;10952;50.836;4.348;2022-12-18T01:07:13;0.70;99.90
21582;DHT22;10952;50.836;4.348;2022-12-18T01:09:57;0.60;99.90
21582;DHT22;10952;50.836;4.348;2022-12-18T01:12:40;0.50;99.90
21582;DHT22;10952;50.836;4.348;2022-12-18T01:15:13;0.40;99.90
21582;DHT22;10952;50.836;4.348;2022-12-18T01:17:46;0.40;99.90
21582;DHT22;10952;50.836;4.348;2022-12-18T01:20:13;0.50;99.90
21582;DHT22;10952;50.836;4.348;2022-12-18T01:22:39;0.50;99.90
21582;DHT22;10952;50.836;4.348;2022-12-18T01:25:11;0.50;99.90
21582;DHT22;10952;50.836;4.348;2022-12-18T01:27:36;0.50;99.90
21582;DHT22;10952;50.836;4.348;2022-12-18T01:30:02;0.50;99.90
21582;DHT22;10952;50.836;4.348;2022-12-18T01:32:30;0.40;99.90
21582;DHT22;10952;50.836;4.348;2022-12-18T01:34:59;0.40;99.90
21582;DHT22;10952;50.836;4.348;2022-12-18T01:37:26;0.50;99.90
21582;DHT22;10952;50.836;4.348;2022-12-18T01:39:54;0.50;99.90
21582;DHT22;10952;50.836;4.348;2022-12-18T01:42:26;0.70;99.90
21582;DHT22;10952;50.836;4.348;2022-12-18T01:50:55;0.80;99.90
21582;DHT22;10952;50.836;4.348;2022-12-18T01:53:24;0.70;99.90
21582;DHT22;10952;50.836;4.348;2022-12-18T01:55:52;0.90;99.90
21582;DHT22;10952;50.836;4.348;2022-12-18T01:58:21;0.90;99.90
21582;DHT22;10952;50.836;4.348;2022-12-18T02:00:49;0.80;99.90
21582;DHT22;10952;50.836;4.348;2022-12-18T02:03:14;0.60;99.90
21582;DHT22;10952;50.836;4.348;2022-12-18T02:05:46;0.70;99.90
21582;DHT22;10952;50.836;4.348;2022-12-18T02:08:25;0.50;99.90
21582;DHT22;10952;50.836;4.348;2022-12-18T02:11:08;0.60;99.90
21582;DHT22;10952;50.836;4.348;2022-12-18T02:19:16;0.60;99.90
21582;DHT22;10952;50.836;4.348;2022-12-18T02:27:26;0.70;99.90
21582;DHT22;10952;50.836;4.348;2022-12-18T02:29:57;0.70;99.90
21582;DHT22;10952;50.836;4.348;2022-12-18T02:32:39;0.60;99.90
21582;DHT22;10952;50.836;4.348;2022-12-18T02:35:13;0.60;99.90
21582;DHT22;10952;50.836;4.348;2022-12-18T02:37:42;0.70;99.90
21582;DHT22;10952;50.836;4.348;2022-12-18T02:40:16;0.60;99.90
21582;DHT22;10952;50.836;4.348;2022-12-18T02:42:45;0.50;99.90
21582;DHT22;10952;50.836;4.348;2022-12-18T02:45:17;0.50;99.90
21582;DHT22;10952;50.836;4.348;2022-12-18T02:47:48;0.40;99.90
21582;DHT22;10952;50.836;4.348;2022-12-18T02:50:43;0.50;99.90
21582;DHT22;10952;50.836;4.348;2022-12-18T02:53:23;0.50;99.90
21582;DHT22;10952;50.836;4.348;2022-12-18T02:58:57;0.60;99.90
21582;DHT22;10952;50.836;4.348;2022-12-18T03:04:55;0.40;99.90
21582;DHT22;10952;50.836;4.348;2022-12-18T03:07:56;0.30;99.90
21582;DHT22;10952;50.836;4.348;2022-12-18T03:10:29;0.10;99.90
21582;DHT22;10952;50.836;4.348;2022-12-18T03:13:03;-0.10;99.90
21582;DHT22;10952;50.836;4.348;2022-12-18T03:15:46;0.00;99.90
21582;DHT22;10952;50.836;4.348;2022-12-18T03:18:21;0.10;99.90
21582;DHT22;10952;50.836;4.348;2022-12-18T03:20:52;0.00;99.90
21582;DHT22;10952;50.836;4.348;2022-12-18T03:23:22;0.10;99.90
21582;DHT22;10952;50.836;4.348;2022-12-18T03:25:51;0.20;99.90
21582;DHT22;10952;50.836;4.348;2022-12-18T03:28:22;0.30;99.90
21582;DHT22;10952;50.836;4.348;2022-12-18T03:30:56;0.30;99.90
21582;DHT22;10952;50.836;4.348;2022-12-18T03:36:05;0.10;99.90
21582;DHT22;10952;50.836;4.348;2022-12-18T03:38:34;0.10;99.90
21582;DHT22;10952;50.836;4.348;2022-12-18T03:44:03;0.00;99.90
21582;DHT22;10952;50.836;4.348;2022-12-18T03:46:41;-0.10;99.90
21582;DHT22;10952;50.836;4.348;2022-12-18T03:49:18;0.00;99.90
21582;DHT22;10952;50.836;4.348;2022-12-18T03:51:57;-0.10;99.90
21582;DHT22;10952;50.836;4.348;2022-12-18T03:54:28;-0.10;99.90
21582;DHT22;10952;50.836;4.348;2022-12-18T03:57:03;-0.10;99.90
21582;DHT22;10952;50.836;4.348;2022-12-18T03:59:30;0.00;99.90
21582;DHT22;10952;50.836;4.348;2022-12-18T04:01:57;0.00;99.90
21582;DHT22;10952;50.836;4.348;2022-12-18T04:04:24;0.00;99.90
21582;DHT22;10952;50.836;4.348;2022-12-18T04:06:54;0.00;99.90
21582;DHT22;10952;50.836;4.348;2022-12-18T04:09:23;0.00;99.90
21582;DHT22;10952;50.836;4.348;2022-12-18T04:11:51;0.10;99.90
21582;DHT22;10952;50.836;4.348;2022-12-18T04:14:19;0.10;99.90
21582;DHT22;10952;50.836;4.348;2022-12-18T04:16:48;0.00;99.90
21582;DHT22;10952;50.836;4.348;2022-12-18T04:19:13;0.00;99.90
21582;DHT22;10952;50.836;4.348;2022-12-18T04:21:40;-0.10;99.90
21582;DHT22;10952;50.836;4.348;2022-12-18T04:24:07;0.00;99.90
21582;DHT22;10952;50.836;4.348;2022-12-18T04:26:36;-0.10;99.90
21582;DHT22;10952;50.836;4.348;2022-12-18T04:29:02;-0.10;99.90
21582;DHT22;10952;50.836;4.348;2022-12-18T04:31:29;-0.20;99.90
21582;DHT22;10952;50.836;4.348;2022-12-18T04:33:58;-0.30;99.90
21582;DHT22;10952;50.836;4.348;2022-12-18T04:36:27;-0.10;99.90
21582;DHT22;10952;50.836;4.348;2022-12-18T04:38:56;0.00;99.90
21582;DHT22;10952;50.836;4.348;2022-12-18T04:41:25;0.10;99.90
21582;DHT22;10952;50.836;4.348;2022-12-18T04:43:53;0.10;99.90
21582;DHT22;10952;50.836;4.348;2022-12-18T04:46:22;0.10;99.90
21582;DHT22;10952;50.836;4.348;2022-12-18T04:48:50;0.10;99.90
21582;DHT22;10952;50.836;4.348;2022-12-18T04:51:18;0.10;99.90
21582;DHT22;10952;50.836;4.348;2022-12-18T04:53:45;0.10;99.90
21582;DHT22;10952;50.836;4.348;2022-12-18T04:56:15;0.00;99.90
21582;DHT22;10952;50.836;4.348;2022-12-18T04:58:44;0.10;99.90
21582;DHT22;10952;50.836;4.348;2022-12-18T05:01:14;0.00;99.90
21582;DHT22;10952;50.836;4.348;2022-12-18T05:03:57;0.00;99.90
21582;DHT22;10952;50.836;4.348;2022-12-18T05:06:24;0.00;99.90
21582;DHT22;10952;50.836;4.348;2022-12-18T05:08:53;0.10;99.90
21582;DHT22;10952;50.836;4.348;2022-12-18T05:11:20;0.10;99.90
21582;DHT22;10952;50.836;4.348;2022-12-18T05:16:51;0.00;99.90
21582;DHT22;10952;50.836;4.348;2022-12-18T05:19:19;-0.20;99.90
21582;DHT22;10952;50.836;4.348;2022-12-18T05:21:48;-0.20;99.90
21582;DHT22;10952;50.836;4.348;2022-12-18T05:24:20;-0.20;99.90
21582;DHT22;10952;50.836;4.348;2022-12-18T05:26:49;-0.20;99.90
21582;DHT22;10952;50.836;4.348;2022-12-18T05:29:17;-0.20;99.90
21582;DHT22;10952;50.836;4.348;2022-12-18T05:31:43;-0.20;99.90
21582;DHT22;10952;50.836;4.348;2022-12-18T05:34:12;-0.10;99.90
21582;DHT22;10952;50.836;4.348;2022-12-18T05:36:40;-0.10;99.90
21582;DHT22;10952;50.836;4.348;2022-12-18T05:39:08;-0.20;99.90
21582;DHT22;10952;50.836;4.348;2022-12-18T05:41:34;-0.10;99.90
21582;DHT22;10952;50.836;4.348;2022-12-18T05:44:03;-0.10;99.90
21582;DHT22;10952;50.836;4.348;2022-12-18T05:46:32;-0.20;99.90
21582;DHT22;10952;50.836;4.348;2022-12-18T05:49:06;-0.20;99.90
21582;DHT22;10952;50.836;4.348;2022-12-18T05:51:35;-0.20;99.90
21582;DHT22;10952;50.836;4.348;2022-12-18T05:54:04;-0.10;99.90
21582;DHT22;10952;50.836;4.348;2022-12-18T05:56:32;-0.20;99.90
21582;DHT22;10952;50.836;4.348;2022-12-18T05:59:01;-0.10;99.90
21582;DHT22;10952;50.836;4.348;2022-12-18T06:01:30;0.10;99.90
21582;DHT22;10952;50.836;4.348;2022-12-18T06:03:57;-0.10;99.90
21582;DHT22;10952;50.836;4.348;2022-12-18T06:06:25;-0.30;99.90
21582;DHT22;10952;50.836;4.348;2022-12-18T06:08:51;-0.40;99.90
21582;DHT22;10952;50.836;4.348;2022-12-18T06:11:25;-0.40;99.90
21582;DHT22;10952;50.836;4.348;2022-12-18T06:13:55;-0.40;99.90
21582;DHT22;10952;50.836;4.348;2022-12-18T06:16:25;-0.50;99.90
21582;DHT22;10952;50.836;4.348;2022-12-18T06:18:59;-0.50;99.90
21582;DHT22;10952;50.836;4.348;2022-12-18T06:21:26;-0.40;99.90
21582;DHT22;10952;50.836;4.348;2022-12-18T06:23:55;-0.30;99.90
21582;DHT22;10952;50.836;4.348;2022-12-18T06:26:24;-0.30;99.90
21582;DHT22;10952;50.836;4.348;2022-12-18T06:29:08;-0.10;99.90
21582;DHT22;10952;50.836;4.348;2022-12-18T06:31:37;0.00;99.90
21582;DHT22;10952;50.836;4.348;2022-12-18T06:34:05;-0.10;99.90
21582;DHT22;10952;50.836;4.348;2022-12-18T06:36:34;-0.20;99.90
21582;DHT22;10952;50.836;4.348;2022-12-18T06:38:59;-0.10;99.90
21582;DHT22;10952;50.836;4.348;2022-12-18T06:41:28;-0.10;99.90
21582;DHT22;10952;50.836;4.348;2022-12-18T06:43:57;-0.10;99.90
21582;DHT22;10952;50.836;4.348;2022-12-18T06:46:26;-0.20;99.90
21582;DHT22;10952;50.836;4.348;2022-12-18T06:48:55;-0.10;99.90
21582;DHT22;10952;50.836;4.348;2022-12-18T06:51:24;0.00;99.90
21582;DHT22;10952;50.836;4.348;2022-12-18T06:53:53;-0.10;99.90
21582;DHT22;10952;50.836;4.348;2022-12-18T06:56:21;0.00;99.90
21582;DHT22;10952;50.836;4.348;2022-12-18T06:58:50;0.00;99.90
21582;DHT22;10952;50.836;4.348;2022-12-18T07:01:16;0.10;99.90
21582;DHT22;10952;50.836;4.348;2022-12-18T07:03:45;-0.10;99.90
21582;DHT22;10952;50.836;4.348;2022-12-18T07:06:32;-0.10;99.90
21582;DHT22;10952;50.836;4.348;2022-12-18T07:09:00;-0.10;99.90
21582;DHT22;10952;50.836;4.348;2022-12-18T07:11:29;-0.20;99.90
21582;DHT22;10952;50.836;4.348;2022-12-18T07:13:59;-0.10;99.90
21582;DHT22;10952;50.836;4.348;2022-12-18T07:16:27;0.00;99.90
21582;DHT22;10952;50.836;4.348;2022-12-18T07:18:57;-0.10;99.90
21582;DHT22;10952;50.836;4.348;2022-12-18T07:21:24;-0.20;99.90
21582;DHT22;10952;50.836;4.348;2022-12-18T07:23:50;-0.30;99.90
21582;DHT22;10952;50.836;4.348;2022-12-18T07:26:19;-0.30;99.90
21582;DHT22;10952;50.836;4.348;2022-12-18T07:28:47;-0.30;99.90
21582;DHT22;10952;50.836;4.348;2022-12-18T07:31:21;-0.40;99.90
21582;DHT22;10952;50.836;4.348;2022-12-18T07:33:47;-0.50;99.90
21582;DHT22;10952;50.836;4.348;2022-12-18T07:36:14;-0.50;99.90
21582;DHT22;10952;50.836;4.348;2022-12-18T07:38:42;-0.30;99.90
21582;DHT22;10952;50.836;4.348;2022-12-18T07:41:13;-0.20;99.90
21582;DHT22;10952;50.836;4.348;2022-12-18T07:43:42;0.00;99.90
21582;DHT22;10952;50.836;4.348;2022-12-18T07:46:09;-0.10;99.90
21582;DHT22;10952;50.836;4.348;2022-12-18T07:48:35;-0.20;99.90
21582;DHT22;10952;50.836;4.348;2022-12-18T07:51:02;-0.20;99.90
21582;DHT22;10952;50.836;4.348;2022-12-18T07:53:29;-0.30;99.90
21582;DHT22;10952;50.836;4.348;2022-12-18T07:55:58;-0.20;99.90
21582;DHT22;10952;50.836;4.348;2022-12-18T07:58:25;-0.10;99.90
21582;DHT22;10952;50.836;4.348;2022-12-18T08:00:53;-0.10;99.90
21582;DHT22;10952;50.836;4.348;2022-12-18T08:03:20;0.00;99.90
21582;DHT22;10952;50.836;4.348;2022-12-18T08:05:49;0.00;99.90
21582;DHT22;10952;50.836;4.348;2022-12-18T08:08:14;-0.10;99.90
21582;DHT22;10952;50.836;4.348;2022-12-18T08:10:40;0.00;99.90
21582;DHT22;10952;50.836;4.348;2022-12-18T08:13:06;-0.10;99.90
21582;DHT22;10952;50.836;4.348;2022-12-18T08:15:33;-0.10;99.90
21582;DHT22;10952;50.836;4.348;2022-12-18T08:18:01;-0.10;99.90
21582;DHT22;10952;50.836;4.348;2022-12-18T08:20:26;-0.20;99.90
21582;DHT22;10952;50.836;4.348;2022-12-18T08:22:54;-0.20;99.90
21582;DHT22;10952;50.836;4.348;2022-12-18T08:25:20;-0.20;99.90
21582;DHT22;10952;50.836;4.348;2022-12-18T08:27:45;-0.20;99.90
21582;DHT22;10952;50.836;4.348;2022-12-18T08:30:11;-0.30;99.90
21582;DHT22;10952;50.836;4.348;2022-12-18T08:32:39;-0.20;99.90
21582;DHT22;10952;50.836;4.348;2022-12-18T08:35:05;-0.10;99.90
21582;DHT22;10952;50.836;4.348;2022-12-18T08:37:30;-0.10;99.90
21582;DHT22;10952;50.836;4.348;2022-12-18T08:39:56;-0.10;99.90
21582;DHT22;10952;50.836;4.348;2022-12-18T08:42:21;0.10;99.90
21582;DHT22;10952;50.836;4.348;2022-12-18T08:45:06;0.00;99.90
21582;DHT22;10952;50.836;4.348;2022-12-18T08:47:32;0.00;99.90
21582;DHT22;10952;50.836;4.348;2022-12-18T08:49:58;0.10;99.90
21582;DHT22;10952;50.836;4.348;2022-12-18T08:52:27;0.30;99.90
21582;DHT22;10952;50.836;4.348;2022-12-18T08:54:53;0.30;99.90
21582;DHT22;10952;50.836;4.348;2022-12-18T08:57:19;0.40;99.90
21582;DHT22;10952;50.836;4.348;2022-12-18T08:59:44;0.50;99.90
21582;DHT22;10952;50.836;4.348;2022-12-18T09:02:11;0.70;99.90
21582;DHT22;10952;50.836;4.348;2022-12-18T09:04:36;0.80;99.90
21582;DHT22;10952;50.836;4.348;2022-12-18T09:07:02;0.80;99.90
21582;DHT22;10952;50.836;4.348;2022-12-18T09:09:28;0.60;99.90
21582;DHT22;10952;50.836;4.348;2022-12-18T09:11:55;0.60;99.90
21582;DHT22;10952;50.836;4.348;2022-12-18T09:14:20;0.60;99.90
21582;DHT22;10952;50.836;4.348;2022-12-18T09:16:46;0.70;99.90
21582;DHT22;10952;50.836;4.348;2022-12-18T09:19:11;1.00;99.90
21582;DHT22;10952;50.836;4.348;2022-12-18T09:21:37;1.00;99.90
21582;DHT22;10952;50.836;4.348;2022-12-18T09:24:04;1.00;99.90
21582;DHT22;10952;50.836;4.348;2022-12-18T09:26:31;1.00;99.90
21582;DHT22;10952;50.836;4.348;2022-12-18T09:28:57;1.00;99.90
21582;DHT22;10952;50.836;4.348;2022-12-18T09:31:23;1.00;99.90
21582;DHT22;10952;50.836;4.348;2022-12-18T09:33:50;1.20;99.90
21582;DHT22;10952;50.836;4.348;2022-12-18T09:36:19;1.30;99.90
21582;DHT22;10952;50.836;4.348;2022-12-18T09:38:48;1.30;99.90
21582;DHT22;10952;50.836;4.348;2022-12-18T09:44:18;1.60;99.90
21582;DHT22;10952;50.836;4.348;2022-12-18T09:46:51;1.80;99.90
21582;DHT22;10952;50.836;4.348;2022-12-18T09:49:24;2.00;99.90
21582;DHT22;10952;50.836;4.348;2022-12-18T09:52:20;2.00;99.90
21582;DHT22;10952;50.836;4.348;2022-12-18T09:54:55;1.80;99.90
21582;DHT22;10952;50.836;4.348;2022-12-18T09:57:23;1.90;99.90
21582;DHT22;10952;50.836;4.348;2022-12-18T10:00:20;2.00;99.90
21582;DHT22;10952;50.836;4.348;2022-12-18T10:02:47;2.10;99.90
21582;DHT22;10952;50.836;4.348;2022-12-18T10:05:37;2.30;99.90
21582;DHT22;10952;50.836;4.348;2022-12-18T10:08:18;2.40;99.90
21582;DHT22;10952;50.836;4.348;2022-12-18T10:11:22;2.50;99.90
21582;DHT22;10952;50.836;4.348;2022-12-18T10:19:51;2.40;99.90
21582;DHT22;10952;50.836;4.348;2022-12-18T10:25:34;2.20;99.90
21582;DHT22;10952;50.836;4.348;2022-12-18T10:28:13;2.10;99.90
21582;DHT22;10952;50.836;4.348;2022-12-18T10:30:43;2.10;99.90
21582;DHT22;10952;50.836;4.348;2022-12-18T10:33:21;2.30;99.90
21582;DHT22;10952;50.836;4.348;2022-12-18T10:35:49;2.40;99.90
21582;DHT22;10952;50.836;4.348;2022-12-18T10:38:20;2.40;99.90
21582;DHT22;10952;50.836;4.348;2022-12-18T10:40:55;2.60;99.90
21582;DHT22;10952;50.836;4.348;2022-12-18T10:43:31;2.70;99.90
21582;DHT22;10952;50.836;4.348;2022-12-18T10:48:31;2.60;99.90
21582;DHT22;10952;50.836;4.348;2022-12-18T10:50:57;2.70;99.90
21582;DHT22;10952;50.836;4.348;2022-12-18T10:53:28;2.70;99.90
21582;DHT22;10952;50.836;4.348;2022-12-18T10:55:57;2.80;99.90
21582;DHT22;10952;50.836;4.348;2022-12-18T11:03:43;3.00;99.90
21582;DHT22;10952;50.836;4.348;2022-12-18T11:06:14;3.00;99.90
21582;DHT22;10952;50.836;4.348;2022-12-18T11:08:42;3.10;99.90
21582;DHT22;10952;50.836;4.348;2022-12-18T11:11:30;3.00;99.90
21582;DHT22;10952;50.836;4.348;2022-12-18T11:14:03;3.10;99.90
21582;DHT22;10952;50.836;4.348;2022-12-18T11:16:36;3.00;99.90
21582;DHT22;10952;50.836;4.348;2022-12-18T11:19:29;3.00;99.90
21582;DHT22;10952;50.836;4.348;2022-12-18T11:21:57;3.20;99.90
21582;DHT22;10952;50.836;4.348;2022-12-18T11:24:35;3.40;99.90
21582;DHT22;10952;50.836;4.348;2022-12-18T11:27:06;3.40;99.90
21582;DHT22;10952;50.836;4.348;2022-12-18T11:29:41;3.30;99.90
21582;DHT22;10952;50.836;4.348;2022-12-18T11:35:11;3.30;99.90
21582;DHT22;10952;50.836;4.348;2022-12-18T11:37:42;3.30;99.90
21582;DHT22;10952;50.836;4.348;2022-12-18T11:40:39;3.10;99.90
21582;DHT22;10952;50.836;4.348;2022-12-18T11:43:18;3.10;99.90
21582;DHT22;10952;50.836;4.348;2022-12-18T11:45:54;3.10;99.90
21582;DHT22;10952;50.836;4.348;2022-12-18T11:48:25;3.00;99.90
21582;DHT22;10952;50.836;4.348;2022-12-18T11:50:54;3.10;99.90
21582;DHT22;10952;50.836;4.348;2022-12-18T11:53:21;3.20;99.90
21582;DHT22;10952;50.836;4.348;2022-12-18T11:56:26;3.40;99.90
21582;DHT22;10952;50.836;4.348;2022-12-18T12:01:50;3.30;99.90
21582;DHT22;10952;50.836;4.348;2022-12-18T12:16:17;3.00;99.90
21582;DHT22;10952;50.836;4.348;2022-12-18T12:19:07;3.10;99.90
21582;DHT22;10952;50.836;4.348;2022-12-18T12:21:43;3.10;99.90
21582;DHT22;10952;50.836;4.348;2022-12-18T12:24:28;3.10;99.90
21582;DHT22;10952;50.836;4.348;2022-12-18T12:30:18;3.40;99.90
21582;DHT22;10952;50.836;4.348;2022-12-18T12:35:46;3.60;99.90
21582;DHT22;10952;50.836;4.348;2022-12-18T12:38:52;3.50;99.90
21582;DHT22;10952;50.836;4.348;2022-12-18T12:41:35;3.60;99.90
21582;DHT22;10952;50.836;4.348;2022-12-18T12:44:34;3.60;99.90
21582;DHT22;10952;50.836;4.348;2022-12-18T12:47:27;3.70;99.90
21582;DHT22;10952;50.836;4.348;2022-12-18T12:50:01;3.30;99.90
21582;DHT22;10952;50.836;4.348;2022-12-18T12:52:47;3.30;99.90
21582;DHT22;10952;50.836;4.348;2022-12-18T12:55:25;3.30;99.90
21582;DHT22;10952;50.836;4.348;2022-12-18T12:58:29;3.20;99.90
21582;DHT22;10952;50.836;4.348;2022-12-18T13:02:05;3.10;99.90
21582;DHT22;10952;50.836;4.348;2022-12-18T13:04:57;3.50;99.90
21582;DHT22;10952;50.836;4.348;2022-12-18T13:16:26;3.60;99.90
21582;DHT22;10952;50.836;4.348;2022-12-18T13:19:29;3.50;99.90
21582;DHT22;10952;50.836;4.348;2022-12-18T13:21:55;3.40;99.90
21582;DHT22;10952;50.836;4.348;2022-12-18T13:24:41;3.50;99.90
21582;DHT22;10952;50.836;4.348;2022-12-18T13:30:41;3.80;99.90
21582;DHT22;10952;50.836;4.348;2022-12-18T13:38:35;3.60;99.90
21582;DHT22;10952;50.836;4.348;2022-12-18T13:43:50;3.50;99.90
21582;DHT22;10952;50.836;4.348;2022-12-18T13:49:25;3.50;99.90
21582;DHT22;10952;50.836;4.348;2022-12-18T13:51:55;3.50;99.90
21582;DHT22;10952;50.836;4.348;2022-12-18T13:54:45;3.40;99.90
21582;DHT22;10952;50.836;4.348;2022-12-18T13:59:56;3.30;99.90
21582;DHT22;10952;50.836;4.348;2022-12-18T14:02:28;3.30;99.90
21582;DHT22;10952;50.836;4.348;2022-12-18T14:04:54;3.30;99.90
21582;DHT22;10952;50.836;4.348;2022-12-18T14:07:25;3.20;99.90
21582;DHT22;10952;50.836;4.348;2022-12-18T14:09:59;3.10;99.90
21582;DHT22;10952;50.836;4.348;2022-12-18T14:12:29;3.10;99.90
21582;DHT22;10952;50.836;4.348;2022-12-18T14:17:59;3.20;99.90
21582;DHT22;10952;50.836;4.348;2022-12-18T14:20:29;3.40;99.90
21582;DHT22;10952;50.836;4.348;2022-12-18T14:22:59;3.30;99.90
21582;DHT22;10952;50.836;4.348;2022-12-18T14:25:29;3.30;99.90
21582;DHT22;10952;50.836;4.348;2022-12-18T14:30:40;3.40;99.90
21582;DHT22;10952;50.836;4.348;2022-12-18T14:33:22;3.30;99.90
21582;DHT22;10952;50.836;4.348;2022-12-18T14:36:02;3.40;99.90
21582;DHT22;10952;50.836;4.348;2022-12-18T14:38:37;3.10;99.90
21582;DHT22;10952;50.836;4.348;2022-12-18T14:41:13;3.20;99.90
21582;DHT22;10952;50.836;4.348;2022-12-18T14:43:45;3.20;99.90
21582;DHT22;10952;50.836;4.348;2022-12-18T14:46:33;3.20;99.90
21582;DHT22;10952;50.836;4.348;2022-12-18T14:49:34;3.10;99.90
21582;DHT22;10952;50.836;4.348;2022-12-18T14:52:06;3.00;99.90
21582;DHT22;10952;50.836;4.348;2022-12-18T14:54:35;3.10;99.90
21582;DHT22;10952;50.836;4.348;2022-12-18T14:59:42;3.10;99.90
21582;DHT22;10952;50.836;4.348;2022-12-18T15:02:26;3.10;99.90
21582;DHT22;10952;50.836;4.348;2022-12-18T15:05:14;3.10;99.90
21582;DHT22;10952;50.836;4.348;2022-12-18T15:07:51;3.20;99.90
21582;DHT22;10952;50.836;4.348;2022-12-18T15:10:27;3.10;99.90
21582;DHT22;10952;50.836;4.348;2022-12-18T15:20:54;3.20;99.90
21582;DHT22;10952;50.836;4.348;2022-12-18T15:26:16;3.20;99.90
21582;DHT22;10952;50.836;4.348;2022-12-18T15:28:53;3.10;99.90
21582;DHT22;10952;50.836;4.348;2022-12-18T15:31:34;3.30;99.90
21582;DHT22;10952;50.836;4.348;2022-12-18T15:34:13;3.30;99.90
21582;DHT22;10952;50.836;4.348;2022-12-18T15:36:39;3.70;99.90
21582;DHT22;10952;50.836;4.348;2022-12-18T15:39:05;3.60;99.90
21582;DHT22;10952;50.836;4.348;2022-12-18T15:41:33;3.70;99.90
21582;DHT22;10952;50.836;4.348;2022-12-18T15:43:59;3.60;99.90
21582;DHT22;10952;50.836;4.348;2022-12-18T15:46:26;3.50;99.90
21582;DHT22;10952;50.836;4.348;2022-12-18T15:49:02;3.50;99.90
21582;DHT22;10952;50.836;4.348;2022-12-18T15:51:36;3.30;99.90
21582;DHT22;10952;50.836;4.348;2022-12-18T15:54:20;3.40;99.90
21582;DHT22;10952;50.836;4.348;2022-12-18T15:57:09;3.50;99.90
21582;DHT22;10952;50.836;4.348;2022-12-18T15:59:55;3.60;99.90
21582;DHT22;10952;50.836;4.348;2022-12-18T16:02:36;3.60;99.90
21582;DHT22;10952;50.836;4.348;2022-12-18T16:05:14;3.60;99.90
21582;DHT22;10952;50.836;4.348;2022-12-18T16:08:14;3.50;99.90
21582;DHT22;10952;50.836;4.348;2022-12-18T16:10:42;3.40;99.90
21582;DHT22;10952;50.836;4.348;2022-12-18T16:13:18;3.40;99.90
21582;DHT22;10952;50.836;4.348;2022-12-18T16:15:47;3.40;99.90
21582;DHT22;10952;50.836;4.348;2022-12-18T16:18:19;3.40;99.90
21582;DHT22;10952;50.836;4.348;2022-12-18T16:20:47;3.40;99.90
21582;DHT22;10952;50.836;4.348;2022-12-18T16:23:16;3.50;99.90
21582;DHT22;10952;50.836;4.348;2022-12-18T16:25:43;3.50;99.90
21582;DHT22;10952;50.836;4.348;2022-12-18T16:28:23;3.40;99.90
21582;DHT22;10952;50.836;4.348;2022-12-18T16:30:48;3.40;99.90
21582;DHT22;10952;50.836;4.348;2022-12-18T16:33:17;3.20;99.90
21582;DHT22;10952;50.836;4.348;2022-12-18T16:35:51;3.20;99.90
21582;DHT22;10952;50.836;4.348;2022-12-18T16:38:17;3.30;99.90
21582;DHT22;10952;50.836;4.348;2022-12-18T16:40:42;3.30;99.90
21582;DHT22;10952;50.836;4.348;2022-12-18T16:43:31;3.40;99.90
21582;DHT22;10952;50.836;4.348;2022-12-18T16:46:00;3.60;99.90
21582;DHT22;10952;50.836;4.348;2022-12-18T16:48:26;3.70;99.90
21582;DHT22;10952;50.836;4.348;2022-12-18T16:51:03;3.70;99.90
21582;DHT22;10952;50.836;4.348;2022-12-18T16:53:32;3.60;99.90
21582;DHT22;10952;50.836;4.348;2022-12-18T16:56:01;3.50;99.90
21582;DHT22;10952;50.836;4.348;2022-12-18T16:58:27;3.50;99.90
21582;DHT22;10952;50.836;4.348;2022-12-18T17:00:55;3.50;99.90
21582;DHT22;10952;50.836;4.348;2022-12-18T17:03:23;3.60;99.90
21582;DHT22;10952;50.836;4.348;2022-12-18T17:05:49;3.70;99.90
21582;DHT22;10952;50.836;4.348;2022-12-18T17:08:16;3.80;99.90
21582;DHT22;10952;50.836;4.348;2022-12-18T17:10:48;4.00;99.90
21582;DHT22;10952;50.836;4.348;2022-12-18T17:13:16;3.90;99.90
21582;DHT22;10952;50.836;4.348;2022-12-18T17:15:43;3.90;99.90
21582;DHT22;10952;50.836;4.348;2022-12-18T17:18:12;3.70;99.90
21582;DHT22;10952;50.836;4.348;2022-12-18T17:20:37;3.70;99.90
21582;DHT22;10952;50.836;4.348;2022-12-18T17:23:04;3.80;99.90
21582;DHT22;10952;50.836;4.348;2022-12-18T17:25:32;3.80;99.90
21582;DHT22;10952;50.836;4.348;2022-12-18T17:28:01;3.60;99.90
21582;DHT22;10952;50.836;4.348;2022-12-18T17:30:30;3.50;99.90
21582;DHT22;10952;50.836;4.348;2022-12-18T17:32:58;3.60;99.90
21582;DHT22;10952;50.836;4.348;2022-12-18T17:35:25;3.70;99.90
21582;DHT22;10952;50.836;4.348;2022-12-18T17:37:51;3.80;99.90
21582;DHT22;10952;50.836;4.348;2022-12-18T17:40:20;3.70;99.90
21582;DHT22;10952;50.836;4.348;2022-12-18T17:42:54;3.70;99.90
21582;DHT22;10952;50.836;4.348;2022-12-18T17:45:20;3.60;99.90
21582;DHT22;10952;50.836;4.348;2022-12-18T17:47:49;3.70;99.90
21582;DHT22;10952;50.836;4.348;2022-12-18T17:50:15;3.70;99.90
21582;DHT22;10952;50.836;4.348;2022-12-18T17:52:43;3.60;99.90
21582;DHT22;10952;50.836;4.348;2022-12-18T17:55:12;3.60;99.90
21582;DHT22;10952;50.836;4.348;2022-12-18T17:57:41;3.60;99.90
21582;DHT22;10952;50.836;4.348;2022-12-18T18:00:07;3.40;99.90
21582;DHT22;10952;50.836;4.348;2022-12-18T18:02:34;3.30;99.90
21582;DHT22;10952;50.836;4.348;2022-12-18T18:04:59;3.30;99.90
21582;DHT22;10952;50.836;4.348;2022-12-18T18:07:26;3.30;99.90
21582;DHT22;10952;50.836;4.348;2022-12-18T18:09:59;3.40;99.90
21582;DHT22;10952;50.836;4.348;2022-12-18T18:12:27;3.50;99.90
21582;DHT22;10952;50.836;4.348;2022-12-18T18:15:16;3.60;99.90